Time;durP1;ratioP1;P1;durP2;ratioP2;P2;SDS_P1;SDS_P2;PMS_P1;PMS_P2;Temp;Humidity;BMP_temperature;BMP_pressure;BME280_temperature;BME280_humidity;BME280_pressure;Samples;Min_cycle;Max_cycle;Signal;HPM_P1;HPM_P2
2021/11/09 00:00:58;;;;;;;9.95;2.72;;;19.60;56.20;;;;;;6215855;23;20509;-81
2021/11/09 00:03:24;;;;;;;7.85;2.35;;;19.60;56.20;;;;;;6215421;23;20158;-81
2021/11/09 00:05:53;;;;;;;7.38;2.17;;;19.60;56.20;;;;;;6215395;23;20135;-81
2021/11/09 00:08:23;;;;;;;8.63;2.60;;;19.60;56.00;;;;;;6215133;23;20184;-80
2021/11/09 00:10:49;;;;;;;11.90;2.92;;;19.60;55.90;;;;;;6215650;23;20156;-81
2021/11/09 00:13:15;;;;;;;11.93;2.42;;;19.60;55.90;;;;;;6215397;23;20461;-81
2021/11/09 00:15:41;;;;;;;7.97;2.10;;;19.60;56.00;;;;;;6215465;23;20134;-81
2021/11/09 00:18:06;;;;;;;7.13;2.22;;;19.60;56.00;;;;;;6215652;23;20139;-81
2021/11/09 00:20:35;;;;;;;9.23;2.53;;;19.60;55.80;;;;;;6215475;23;20230;-81
2021/11/09 00:23:01;;;;;;;10.43;2.50;;;19.60;55.90;;;;;;6215912;23;20138;-81
2021/11/09 00:25:27;;;;;;;9.90;2.40;;;19.60;56.20;;;;;;6217448;23;20134;-81
2021/11/09 00:27:53;;;;;;;13.38;2.72;;;19.60;56.00;;;;;;6190845;23;20162;-81
2021/11/09 00:30:20;;;;;;;9.57;2.47;;;19.60;55.90;;;;;;6217084;23;20170;-81
2021/11/09 00:32:46;;;;;;;10.93;2.60;;;19.60;56.10;;;;;;6217285;23;20141;-81
2021/11/09 00:35:13;;;;;;;7.82;2.40;;;19.60;56.20;;;;;;6217546;23;20131;-81
2021/11/09 00:37:41;;;;;;;8.73;2.45;;;19.60;56.30;;;;;;6217069;23;20213;-81
2021/11/09 00:40:08;;;;;;;7.55;2.40;;;19.50;56.20;;;;;;6217253;23;20138;-81
2021/11/09 00:42:34;;;;;;;9.55;2.60;;;19.60;56.20;;;;;;6165631;23;20466;-81
2021/11/09 00:45:00;;;;;;;7.80;2.63;;;19.60;56.20;;;;;;6216981;23;20126;-81
2021/11/09 00:47:26;;;;;;;8.10;2.78;;;19.50;56.00;;;;;;6190897;23;20123;-81
2021/11/09 00:49:52;;;;;;;9.52;2.50;;;19.50;56.20;;;;;;6216788;23;20223;-81
2021/11/09 00:52:18;;;;;;;9.45;2.40;;;19.60;56.10;;;;;;6216953;23;20581;-81
2021/11/09 00:54:44;;;;;;;9.00;2.40;;;19.60;55.90;;;;;;6217030;23;20454;-81
2021/11/09 00:57:09;;;;;;;8.70;2.58;;;19.50;56.50;;;;;;6216933;23;20158;-81
2021/11/09 00:59:35;;;;;;;9.07;2.75;;;19.50;55.90;;;;;;6217303;23;20146;-81
2021/11/09 01:02:01;;;;;;;9.75;2.50;;;19.50;55.80;;;;;;6190598;23;20503;-81
2021/11/09 01:04:27;;;;;;;14.00;2.80;;;19.50;55.70;;;;;;6216913;23;20131;-81
2021/11/09 01:06:53;;;;;;;6.25;2.60;;;19.50;55.70;;;;;;6190238;23;20596;-81
2021/11/09 01:09:19;;;;;;;10.00;2.30;;;19.50;55.50;;;;;;6184990;23;20669;-81
2021/11/09 01:11:44;;;;;;;10.40;2.47;;;19.50;55.70;;;;;;6185293;23;20147;-81
2021/11/09 01:14:11;;;;;;;9.00;2.30;;;19.50;55.70;;;;;;6185579;23;20159;-81
2021/11/09 01:16:37;;;;;;;5.10;2.00;;;19.50;55.50;;;;;;6160741;23;20150;-81
2021/11/09 01:19:04;;;;;;;6.38;2.90;;;19.50;55.80;;;;;;6185362;23;20139;-81
2021/11/09 01:21:32;;;;;;;7.90;2.42;;;19.50;55.60;;;;;;6185191;23;20218;-81
2021/11/09 01:23:57;;;;;;;8.32;2.65;;;19.50;55.70;;;;;;6185489;23;20146;-81
2021/11/09 01:26:23;;;;;;;6.70;2.38;;;19.50;55.70;;;;;;6187095;23;20143;-81
2021/11/09 01:28:50;;;;;;;11.02;2.75;;;19.50;55.50;;;;;;6186690;23;20181;-81
2021/11/09 01:31:15;;;;;;;7.28;2.65;;;19.50;55.80;;;;;;6186905;23;20213;-81
2021/11/09 01:33:42;;;;;;;8.77;2.58;;;19.50;55.70;;;;;;6186629;23;20513;-81
2021/11/09 01:36:07;;;;;;;5.43;2.05;;;19.50;55.60;;;;;;6186101;23;20186;-81
2021/11/09 01:38:33;;;;;;;6.60;2.53;;;19.60;55.60;;;;;;6186597;23;20566;-81
2021/11/09 01:40:59;;;;;;;7.72;2.65;;;19.50;55.40;;;;;;6186646;23;20139;-81
2021/11/09 01:43:25;;;;;;;7.55;2.40;;;19.50;55.50;;;;;;6185136;23;20139;-81
2021/11/09 01:45:51;;;;;;;8.60;2.78;;;19.50;55.60;;;;;;6186903;23;20570;-81
2021/11/09 01:48:17;;;;;;;5.75;2.53;;;19.50;55.50;;;;;;6185124;23;20143;-81
2021/11/09 01:50:47;;;;;;;5.68;2.78;;;19.50;55.60;;;;;;6186685;23;20559;-81
2021/11/09 01:53:13;;;;;;;7.57;2.97;;;19.50;55.70;;;;;;6186749;23;20457;-81
2021/11/09 01:55:39;;;;;;;5.32;1.98;;;19.50;55.50;;;;;;6186237;23;20146;-81
2021/11/09 01:58:05;;;;;;;9.07;2.20;;;19.50;55.50;;;;;;6186319;23;20135;-81
2021/11/09 02:00:37;;;;;;;8.88;2.60;;;19.50;55.40;;;;;;6186636;23;20516;-81
2021/11/09 02:03:03;;;;;;;5.32;2.60;;;19.50;55.90;;;;;;6186221;23;20270;-81
2021/11/09 02:05:29;;;;;;;7.93;2.72;;;19.50;55.90;;;;;;6186226;23;20174;-81
2021/11/09 02:07:58;;;;;;;7.20;2.30;;;19.50;56.10;;;;;;6186050;23;20201;-81
2021/11/09 02:10:28;;;;;;;6.38;2.50;;;19.50;56.20;;;;;;6211736;23;20205;-81
2021/11/09 02:12:54;;;;;;;6.53;2.55;;;19.50;56.20;;;;;;6189944;23;20165;-81
2021/11/09 02:15:20;;;;;;;6.45;2.10;;;19.40;55.90;;;;;;6216093;23;20137;-81
2021/11/09 02:17:46;;;;;;;7.75;2.42;;;19.50;56.10;;;;;;6216298;23;20630;-81
2021/11/09 02:20:13;;;;;;;8.48;2.60;;;19.50;56.10;;;;;;6216380;23;20138;-81
2021/11/09 02:22:40;;;;;;;7.18;2.63;;;19.40;55.80;;;;;;6189881;23;20138;-81
2021/11/09 02:25:08;;;;;;;6.97;2.55;;;19.40;55.80;;;;;;6216089;23;20569;-79
2021/11/09 02:27:33;;;;;;;5.97;2.40;;;19.40;55.80;;;;;;6216509;23;20142;-81
2021/11/09 02:29:59;;;;;;;6.68;2.25;;;19.50;55.80;;;;;;6215946;23;20200;-81
2021/11/09 02:32:25;;;;;;;5.50;2.40;;;19.40;56.00;;;;;;6216375;23;20184;-81
2021/11/09 02:34:50;;;;;;;6.15;2.35;;;19.40;55.90;;;;;;6216003;23;20142;-81
2021/11/09 02:37:17;;;;;;;5.03;2.42;;;19.50;55.80;;;;;;6215945;23;20144;-81
2021/11/09 02:39:43;;;;;;;6.63;2.72;;;19.50;55.90;;;;;;6215969;23;20131;-81
2021/11/09 02:42:11;;;;;;;6.95;2.10;;;19.40;55.80;;;;;;6216087;23;20134;-81
2021/11/09 02:44:37;;;;;;;6.10;2.80;;;19.40;55.80;;;;;;6189120;23;20485;-80
2021/11/09 02:47:07;;;;;;;6.68;2.50;;;19.40;56.10;;;;;;6215343;23;20130;-81
2021/11/09 02:52:14;;;;;;;7.97;2.88;;;19.40;56.10;;;;;;6192899;23;20146;-81
2021/11/09 02:54:43;;;;;;;6.22;2.67;;;19.50;56.00;;;;;;6189425;23;20130;-81
2021/11/09 02:57:20;;;;;;;6.18;2.47;;;19.40;55.80;;;;;;6216097;23;20142;-81
2021/11/09 03:00:17;;;;;;;6.45;2.17;;;19.40;56.00;;;;;;6215703;23;20184;-81
2021/11/09 03:02:40;;;;;;;9.68;2.45;;;19.40;55.80;;;;;;6215713;23;20185;-81
2021/11/09 03:05:15;;;;;;;7.53;2.40;;;19.40;55.90;;;;;;6215806;23;20125;-81
2021/11/09 03:07:53;;;;;;;7.05;2.47;;;19.40;56.10;;;;;;6216029;23;20169;-81
2021/11/09 03:12:55;;;;;;;6.85;2.95;;;19.40;56.20;;;;;;6215664;23;20164;-81
2021/11/09 03:15:26;;;;;;;7.32;2.50;;;19.40;56.20;;;;;;6215499;23;20133;-81
2021/11/09 03:17:58;;;;;;;5.65;2.25;;;19.40;56.20;;;;;;6215978;23;20134;-81
2021/11/09 03:20:28;;;;;;;4.75;2.53;;;19.40;56.10;;;;;;6216067;23;20149;-81
2021/11/09 03:44:20;;;;;;;7.47;2.80;;;19.40;56.00;;;;;;6216082;23;20508;-81
2021/11/09 03:46:50;;;;;;;7.40;2.78;;;19.40;56.20;;;;;;6189708;23;20149;-81
2021/11/09 03:49:17;;;;;;;6.75;2.45;;;19.40;56.00;;;;;;6164618;23;20598;-81
2021/11/09 03:51:43;;;;;;;6.82;2.63;;;19.40;56.10;;;;;;6215932;23;20188;-81
2021/11/09 03:54:12;;;;;;;7.80;2.60;;;19.40;55.90;;;;;;6189397;23;20127;-81
2021/11/09 03:56:43;;;;;;;7.35;2.58;;;19.40;56.20;;;;;;6189798;23;20126;-81
2021/11/09 04:02:05;;;;;;;7.80;2.05;;;19.40;56.10;;;;;;6194081;23;20565;-81
2021/11/09 04:07:22;;;;;;;3.70;2.40;;;19.30;56.00;;;;;;6174788;23;20172;-81
2021/11/09 04:20:52;;;;;;;5.93;2.35;;;19.50;54.60;;;;;;6194294;23;20221;-81
2021/11/09 04:29:12;;;;;;;6.38;2.30;;;19.50;54.90;;;;;;6217119;23;20208;-81
2021/11/09 04:34:46;;;;;;;7.57;2.50;;;19.50;55.50;;;;;;6194839;23;20130;-81
2021/11/09 04:44:00;;;;;;;3.80;2.08;;;19.50;55.80;;;;;;6217011;23;20513;-81
2021/11/09 05:09:30;;;;;;;5.70;2.22;;;19.70;54.80;;;;;;6216028;23;20204;-80
2021/11/09 05:11:56;;;;;;;5.20;2.20;;;19.70;54.70;;;;;;6216706;23;20334;-81
2021/11/09 05:14:22;;;;;;;3.58;2.03;;;19.70;54.90;;;;;;6216927;23;20554;-81
2021/11/09 05:16:47;;;;;;;4.40;2.28;;;19.70;55.00;;;;;;6216694;23;20144;-81
2021/11/09 05:19:13;;;;;;;3.97;2.35;;;19.60;54.80;;;;;;6190137;23;20451;-81
2021/11/09 05:21:39;;;;;;;3.35;1.95;;;19.70;54.80;;;;;;6217084;23;20138;-81
2021/11/09 05:24:06;;;;;;;6.78;2.30;;;19.70;54.90;;;;;;6216977;23;20157;-80
2021/11/09 05:26:32;;;;;;;4.53;2.20;;;19.70;54.50;;;;;;6215164;23;20138;-81
2021/11/09 05:28:58;;;;;;;5.55;2.25;;;19.70;54.40;;;;;;6216574;23;20273;-81
2021/11/09 05:31:23;;;;;;;4.95;2.00;;;19.70;54.80;;;;;;6216583;23;20169;-81
2021/11/09 05:33:54;;;;;;;6.43;2.00;;;19.70;54.80;;;;;;6216648;23;20130;-81
2021/11/09 05:36:20;;;;;;;5.18;2.00;;;19.70;54.90;;;;;;6216539;23;20133;-81
2021/11/09 05:38:55;;;;;;;4.47;2.20;;;19.70;54.60;;;;;;6189713;23;20488;-81
2021/11/09 05:41:22;;;;;;;4.18;1.95;;;19.70;54.60;;;;;;6216591;23;20140;-81
2021/11/09 05:43:48;;;;;;;4.50;2.30;;;19.70;54.30;;;;;;6216848;23;20135;-81
2021/11/09 05:46:14;;;;;;;3.97;2.13;;;19.70;54.80;;;;;;6216781;23;20145;-81
2021/11/09 05:48:39;;;;;;;4.72;2.05;;;19.70;54.60;;;;;;6216781;23;20497;-80
2021/11/09 05:51:06;;;;;;;3.95;2.30;;;19.70;54.80;;;;;;6216416;23;20448;-81
2021/11/09 05:53:33;;;;;;;3.67;2.40;;;19.70;54.40;;;;;;6190009;23;20142;-81
2021/11/09 05:55:59;;;;;;;4.05;2.05;;;19.70;54.70;;;;;;6216941;23;20131;-81
2021/11/09 05:58:25;;;;;;;6.45;2.00;;;19.70;54.60;;;;;;6216352;23;20461;-81
2021/11/09 06:00:51;;;;;;;3.35;2.00;;;19.70;54.20;;;;;;6216387;23;20157;-81
2021/11/09 06:03:19;;;;;;;3.42;1.95;;;19.70;54.50;;;;;;6216296;23;20141;-81
2021/11/09 06:05:45;;;;;;;4.88;2.30;;;19.80;54.50;;;;;;6216636;23;20135;-81
2021/11/09 06:08:11;;;;;;;3.33;1.95;;;19.70;54.20;;;;;;6216743;23;20198;-81
2021/11/09 06:10:36;;;;;;;6.00;2.10;;;19.70;54.40;;;;;;6215775;23;20201;-81
2021/11/09 06:13:02;;;;;;;4.07;2.10;;;19.70;54.20;;;;;;6216051;23;20466;-80
2021/11/09 06:15:28;;;;;;;7.70;2.22;;;19.70;54.50;;;;;;6216514;23;20138;-81
2021/11/09 06:17:53;;;;;;;3.78;1.98;;;19.70;54.10;;;;;;6216495;23;20189;-80
2021/11/09 06:20:19;;;;;;;5.32;2.33;;;19.70;54.90;;;;;;6216152;23;20138;-81
2021/11/09 06:22:45;;;;;;;3.47;1.92;;;19.70;54.40;;;;;;6216321;23;20457;-81
2021/11/09 06:25:10;;;;;;;3.70;1.77;;;19.70;54.10;;;;;;6215958;23;20130;-81
2021/11/09 06:27:36;;;;;;;4.25;2.05;;;19.70;54.20;;;;;;6216148;23;20138;-81
2021/11/09 06:30:02;;;;;;;5.93;2.03;;;19.70;54.30;;;;;;6189487;23;20605;-81
2021/11/09 06:32:28;;;;;;;3.88;1.98;;;19.80;54.10;;;;;;6216071;23;20153;-81
2021/11/09 06:34:54;;;;;;;4.10;1.98;;;19.70;54.30;;;;;;6215984;23;20466;-80
2021/11/09 06:37:19;;;;;;;3.30;1.92;;;19.70;54.10;;;;;;6215990;23;20184;-81
2021/11/09 06:39:45;;;;;;;3.30;1.75;;;19.70;54.20;;;;;;6216256;23;20170;-81
2021/11/09 06:42:11;;;;;;;5.43;2.25;;;19.80;54.20;;;;;;6189166;23;20162;-80
2021/11/09 06:44:37;;;;;;;4.95;2.20;;;19.70;54.10;;;;;;6189684;23;20138;-81
2021/11/09 06:47:03;;;;;;;3.97;2.20;;;19.70;54.10;;;;;;6189268;23;20164;-81
2021/11/09 06:49:28;;;;;;;3.53;1.90;;;19.70;54.10;;;;;;6189207;23;20177;-81
2021/11/09 06:51:54;;;;;;;3.75;1.90;;;19.70;54.00;;;;;;6215923;23;20130;-81
2021/11/09 06:54:20;;;;;;;3.38;1.73;;;19.70;54.10;;;;;;6215798;23;20134;-81
2021/11/09 06:56:45;;;;;;;2.92;1.92;;;19.80;54.00;;;;;;6189399;23;20138;-81
2021/11/09 06:59:11;;;;;;;3.72;2.00;;;19.70;54.00;;;;;;6215978;23;20134;-81
2021/11/09 07:01:37;;;;;;;4.10;1.88;;;19.70;54.10;;;;;;6215795;23;20442;-81
2021/11/09 07:04:03;;;;;;;3.47;2.20;;;19.70;54.00;;;;;;6189399;23;20130;-81
2021/11/09 07:06:29;;;;;;;3.22;2.00;;;19.70;53.90;;;;;;6189281;23;20131;-81
2021/11/09 07:08:54;;;;;;;3.55;2.17;;;19.80;54.00;;;;;;6215278;23;20272;-81
2021/11/09 07:11:20;;;;;;;6.45;2.30;;;19.70;53.90;;;;;;6189392;23;20439;-81
2021/11/09 07:13:46;;;;;;;3.13;1.80;;;19.80;53.90;;;;;;6164118;23;20188;-81
2021/11/09 07:16:14;;;;;;;3.55;2.00;;;19.80;54.10;;;;;;6189419;23;20646;-81
2021/11/09 07:18:40;;;;;;;4.88;2.00;;;19.70;53.90;;;;;;6215667;23;20180;-81
2021/11/09 07:21:06;;;;;;;3.58;1.73;;;19.80;54.00;;;;;;6215548;23;20135;-81
2021/11/09 07:23:32;;;;;;;3.85;2.20;;;19.80;54.00;;;;;;6164189;23;20596;-80
2021/11/09 07:25:57;;;;;;;4.15;1.77;;;19.80;54.00;;;;;;6215931;23;20130;-81
2021/11/09 07:28:23;;;;;;;2.95;1.92;;;19.80;53.90;;;;;;6215401;23;20134;-81
2021/11/09 07:30:58;;;;;;;3.40;2.13;;;19.80;53.90;;;;;;6214000;23;20146;-80
2021/11/09 07:33:25;;;;;;;3.33;2.00;;;19.80;53.80;;;;;;6215209;23;20126;-81
2021/11/09 07:35:50;;;;;;;2.70;1.90;;;19.80;54.00;;;;;;6216291;23;20154;-81
2021/11/09 07:38:17;;;;;;;4.68;1.70;;;19.80;53.70;;;;;;6215600;23;20217;-81
2021/11/09 07:40:45;;;;;;;3.47;1.85;;;19.80;53.80;;;;;;6215526;23;20134;-81
2021/11/09 07:43:11;;;;;;;3.55;1.90;;;19.80;53.70;;;;;;6215532;23;20552;-81
2021/11/09 07:45:37;;;;;;;4.63;2.10;;;19.80;53.70;;;;;;6215870;23;20227;-81
2021/11/09 07:48:03;;;;;;;4.18;1.90;;;19.80;53.70;;;;;;6215178;23;20126;-81
2021/11/09 07:50:30;;;;;;;3.38;1.70;;;19.80;53.70;;;;;;6215691;23;20170;-81
2021/11/09 07:52:58;;;;;;;3.33;1.90;;;19.80;53.70;;;;;;6215759;23;20462;-81
2021/11/09 07:55:26;;;;;;;2.38;1.60;;;19.80;53.60;;;;;;6189514;23;20127;-81
2021/11/09 07:57:57;;;;;;;2.72;1.73;;;19.80;53.40;;;;;;6189344;23;20134;-81
2021/11/09 08:00:32;;;;;;;2.60;1.70;;;19.80;53.10;;;;;;6215781;23;20138;-81
2021/11/09 08:03:15;;;;;;;2.95;1.88;;;19.80;53.60;;;;;;6215737;23;20141;-81
2021/11/09 08:08:28;;;;;;;3.60;1.88;;;19.80;53.60;;;;;;6215482;23;20213;-81
2021/11/09 08:10:53;;;;;;;2.83;1.75;;;19.90;53.10;;;;;;6215243;23;20146;-81
2021/11/09 08:13:19;;;;;;;3.55;1.80;;;19.80;53.40;;;;;;6215244;23;20126;-81
2021/11/09 08:15:45;;;;;;;2.40;1.70;;;19.80;52.90;;;;;;6216750;23;20135;-81
2021/11/09 08:18:15;;;;;;;3.15;1.63;;;19.80;53.00;;;;;;6216902;23;20135;-81
2021/11/09 08:20:40;;;;;;;3.30;1.90;;;19.90;52.90;;;;;;6215803;23;20135;-82
2021/11/09 08:23:07;;;;;;;3.80;1.70;;;19.90;53.00;;;;;;6190153;23;20643;-81
2021/11/09 08:25:33;;;;;;;2.35;1.80;;;19.80;53.10;;;;;;6215161;23;20131;-81
2021/11/09 08:27:58;;;;;;;3.28;2.08;;;19.90;53.00;;;;;;6216282;23;20169;-81
2021/11/09 08:30:24;;;;;;;5.57;2.20;;;19.90;52.80;;;;;;6188875;23;20216;-80
2021/11/09 08:32:52;;;;;;;3.95;1.90;;;19.90;53.10;;;;;;6164205;23;20141;-81
2021/11/09 08:35:21;;;;;;;4.40;1.73;;;19.90;52.90;;;;;;6215657;23;20138;-81
2021/11/09 08:37:50;;;;;;;2.92;1.70;;;19.90;52.90;;;;;;6215317;23;20146;-80
2021/11/09 08:40:19;;;;;;;2.75;1.60;;;19.90;52.60;;;;;;6215258;23;20138;-81
2021/11/09 08:42:49;;;;;;;3.78;2.00;;;19.90;52.80;;;;;;6189448;23;20161;-81
2021/11/09 08:48:12;;;;;;;3.65;1.70;;;19.90;52.90;;;;;;6216947;23;20138;-81
2021/11/09 08:50:38;;;;;;;3.55;1.70;;;19.90;53.20;;;;;;6215727;23;20470;-80
2021/11/09 08:53:09;;;;;;;3.72;1.90;;;19.90;52.80;;;;;;6218527;23;20146;-81
2021/11/09 08:55:57;;;;;;;3.47;1.83;;;19.90;53.10;;;;;;6217022;23;20138;-81
2021/11/09 08:58:36;;;;;;;2.65;1.85;;;19.90;52.80;;;;;;6216494;23;20185;-81
2021/11/09 09:06:21;;;;;;;3.05;1.80;;;19.90;53.00;;;;;;6216581;23;20142;-80
2021/11/09 09:08:47;;;;;;;2.85;1.60;;;19.90;52.50;;;;;;6216079;23;20190;-81
2021/11/09 09:11:13;;;;;;;3.90;1.70;;;19.90;52.90;;;;;;6190611;23;20213;-81
2021/11/09 09:13:39;;;;;;;2.78;1.92;;;19.90;52.80;;;;;;6216412;23;20565;-81
2021/11/09 09:16:04;;;;;;;2.55;1.90;;;19.90;52.80;;;;;;6217040;23;20134;-81
2021/11/09 09:18:30;;;;;;;2.88;1.75;;;19.90;52.70;;;;;;6216967;23;20156;-81
2021/11/09 09:20:59;;;;;;;3.08;1.63;;;19.90;52.80;;;;;;6216984;23;20142;-81
2021/11/09 09:23:31;;;;;;;6.10;2.10;;;19.90;52.90;;;;;;6191189;23;20154;-81
2021/11/09 09:26:15;;;;;;;3.67;1.75;;;19.90;52.90;;;;;;6191833;23;20144;-81
2021/11/09 09:29:03;;;;;;;2.97;1.65;;;19.90;52.80;;;;;;6216797;23;20130;-81
2021/11/09 09:31:47;;;;;;;4.15;2.22;;;19.90;52.60;;;;;;6216164;23;20150;-81
2021/11/09 09:52:57;;;;;;;3.35;1.55;;;20.00;52.60;;;;;;6216421;23;20138;-81
2021/11/09 09:55:36;;;;;;;3.47;1.65;;;20.00;52.40;;;;;;6189682;23;20142;-81
2021/11/09 09:58:03;;;;;;;2.92;1.52;;;19.90;52.40;;;;;;6192936;23;20130;-81
2021/11/09 10:00:29;;;;;;;2.03;1.83;;;20.00;52.40;;;;;;6189709;23;20480;-81
2021/11/09 10:02:56;;;;;;;2.30;1.80;;;19.90;52.70;;;;;;6189705;23;20558;-81
2021/11/09 10:05:22;;;;;;;2.55;1.60;;;19.90;52.40;;;;;;6189925;23;20161;-81
2021/11/09 10:07:52;;;;;;;2.58;1.63;;;19.90;52.70;;;;;;6164749;23;20253;-81
2021/11/09 10:10:21;;;;;;;3.08;1.70;;;20.00;52.50;;;;;;6215819;23;20198;-81
2021/11/09 10:12:59;;;;;;;2.17;1.90;;;19.90;52.80;;;;;;6216738;23;20697;-82
2021/11/09 10:15:27;;;;;;;3.15;1.88;;;20.00;52.90;;;;;;6217291;23;20134;-81
2021/11/09 10:17:53;;;;;;;2.78;1.48;;;20.00;52.50;;;;;;6216113;23;20173;-81
2021/11/09 10:20:22;;;;;;;5.20;1.60;;;20.00;51.70;;;;;;6216201;23;20138;-81
2021/11/09 10:22:52;;;;;;;2.50;1.60;;;20.00;52.30;;;;;;6165056;23;20153;-81
2021/11/09 10:25:19;;;;;;;2.20;1.40;;;20.00;52.10;;;;;;6190475;23;20512;-81
2021/11/09 10:27:46;;;;;;;2.75;1.70;;;19.90;52.20;;;;;;6216285;23;20213;-81
2021/11/09 10:30:25;;;;;;;4.60;1.50;;;20.00;52.80;;;;;;6189173;23;20456;-81
2021/11/09 10:32:51;;;;;;;2.72;1.52;;;19.90;52.70;;;;;;6192052;23;20134;-81
2021/11/09 10:35:17;;;;;;;3.40;1.70;;;20.00;51.30;;;;;;6216279;23;20248;-81
2021/11/09 10:37:47;;;;;;;2.13;1.70;;;19.90;52.20;;;;;;6189416;23;20254;-81
2021/11/09 10:40:17;;;;;;;2.42;1.60;;;20.00;51.40;;;;;;6215851;23;20637;-81
2021/11/09 10:42:44;;;;;;;2.55;1.70;;;20.00;52.00;;;;;;6166203;23;20157;-81
2021/11/09 10:45:12;;;;;;;2.30;1.63;;;20.00;51.70;;;;;;6165016;23;20154;-81
2021/11/09 10:47:41;;;;;;;2.33;1.60;;;20.00;51.80;;;;;;6215979;23;20134;-81
2021/11/09 10:50:18;;;;;;;1.75;1.40;;;19.90;52.10;;;;;;6216132;23;20604;-81
2021/11/09 10:52:43;;;;;;;2.15;1.45;;;19.90;52.00;;;;;;6215753;23;20137;-81
2021/11/09 10:55:17;;;;;;;2.72;1.65;;;20.00;51.60;;;;;;6215991;23;20138;-83
2021/11/09 10:57:54;;;;;;;4.40;1.52;;;20.00;51.80;;;;;;6214114;23;20233;-81
2021/11/09 11:06:15;;;;;;;2.65;1.70;;;19.90;52.00;;;;;;6215625;23;20209;-81
2021/11/09 11:08:41;;;;;;;2.90;1.77;;;20.00;52.30;;;;;;6214923;23;20209;-82
2021/11/09 11:11:28;;;;;;;2.22;1.73;;;20.00;52.20;;;;;;6215686;23;20134;-81
2021/11/09 11:13:56;;;;;;;2.30;1.23;;;19.90;52.10;;;;;;6215558;23;20138;-81
2021/11/09 11:16:22;;;;;;;3.45;1.55;;;19.90;51.80;;;;;;6215936;23;20618;-81
2021/11/09 11:18:52;;;;;;;1.70;1.48;;;19.90;51.90;;;;;;6214247;23;20193;-81
2021/11/09 11:21:19;;;;;;;3.30;1.88;;;19.90;51.80;;;;;;6215558;23;20458;-81
2021/11/09 11:23:45;;;;;;;1.77;1.50;;;20.00;52.20;;;;;;6189190;23;20130;-81
2021/11/09 11:26:10;;;;;;;2.83;1.58;;;20.00;51.60;;;;;;6189442;23;20597;-81
2021/11/09 11:28:38;;;;;;;2.67;1.52;;;20.00;52.20;;;;;;6215765;23;20141;-81
2021/11/09 11:31:04;;;;;;;2.95;1.48;;;20.00;52.10;;;;;;6215918;23;20133;-81
2021/11/09 11:33:30;;;;;;;2.10;1.60;;;19.90;51.70;;;;;;6216085;23;20181;-81
2021/11/09 11:35:56;;;;;;;1.85;1.50;;;19.90;51.80;;;;;;6216261;23;20139;-81
2021/11/09 11:38:22;;;;;;;3.13;1.40;;;19.90;51.80;;;;;;6189493;23;20176;-81
2021/11/09 11:40:50;;;;;;;2.90;1.58;;;20.00;51.90;;;;;;6215708;23;20447;-81
2021/11/09 11:43:51;;;;;;;4.45;1.77;;;20.00;51.80;;;;;;6215770;23;20134;-81
2021/11/09 11:46:41;;;;;;;2.60;1.50;;;20.00;51.90;;;;;;6215355;23;20134;-81
2021/11/09 11:49:10;;;;;;;2.05;1.52;;;19.90;51.90;;;;;;6194245;23;20166;-81
2021/11/09 11:51:38;;;;;;;2.03;1.60;;;20.00;51.80;;;;;;6188952;23;20162;-81
2021/11/09 11:54:07;;;;;;;2.25;1.63;;;19.90;52.20;;;;;;6215326;23;20530;-81
2021/11/09 11:56:50;;;;;;;2.47;1.77;;;20.00;52.30;;;;;;6189502;23;20138;-81
2021/11/09 11:59:37;;;;;;;2.20;1.50;;;20.00;52.50;;;;;;6215792;23;20158;-81
2021/11/09 12:02:06;;;;;;;2.25;1.50;;;20.00;52.30;;;;;;6168581;23;20519;-81
2021/11/09 12:04:50;;;;;;;2.28;1.45;;;20.00;52.30;;;;;;6215712;23;20558;-81
2021/11/09 12:07:18;;;;;;;3.03;1.80;;;20.00;52.60;;;;;;6215414;23;20453;-81
2021/11/09 12:09:46;;;;;;;2.00;1.60;;;20.00;52.40;;;;;;6164851;23;20280;-82
2021/11/09 12:12:30;;;;;;;2.67;1.60;;;20.00;52.40;;;;;;6188943;23;20156;-81
2021/11/09 12:14:59;;;;;;;2.00;1.30;;;19.90;52.30;;;;;;6189459;23;20136;-81
2021/11/09 12:17:34;;;;;;;2.60;1.55;;;20.00;52.00;;;;;;6188994;23;20658;-80
2021/11/09 12:20:16;;;;;;;2.35;1.58;;;19.90;52.10;;;;;;6216519;23;20149;-80
2021/11/09 12:22:49;;;;;;;2.00;1.40;;;19.90;52.10;;;;;;6190565;23;20137;-80
2021/11/09 12:25:37;;;;;;;1.95;1.63;;;19.90;52.00;;;;;;6217123;23;20479;-81
2021/11/09 12:28:07;;;;;;;2.55;1.63;;;19.90;52.00;;;;;;6190835;23;20134;-81
2021/11/09 12:30:46;;;;;;;2.03;1.67;;;19.90;52.30;;;;;;6216813;23;20200;-81
2021/11/09 12:33:15;;;;;;;2.50;1.48;;;19.90;51.50;;;;;;6190769;23;20157;-81
2021/11/09 12:35:43;;;;;;;1.45;1.30;;;20.00;51.20;;;;;;6216906;23;20507;-81
2021/11/09 12:38:15;;;;;;;2.97;1.45;;;20.00;51.40;;;;;;6217025;23;20265;-81
2021/11/09 12:40:57;;;;;;;1.83;1.17;;;20.00;51.80;;;;;;6190344;23;20221;-80
2021/11/09 12:43:44;;;;;;;2.55;1.60;;;20.00;51.80;;;;;;6215392;23;20177;-81
2021/11/09 12:46:25;;;;;;;1.88;1.40;;;20.00;51.90;;;;;;6195305;23;20140;-82
2021/11/09 12:48:59;;;;;;;2.03;1.83;;;20.00;51.50;;;;;;6217213;23;20144;-81
2021/11/09 12:51:30;;;;;;;2.45;1.38;;;20.00;51.60;;;;;;6190897;23;20156;-81
2021/11/09 12:54:00;;;;;;;2.63;1.55;;;20.00;51.70;;;;;;6190819;23;20138;-81
2021/11/09 12:56:33;;;;;;;3.47;1.40;;;20.00;51.70;;;;;;6216887;23;20142;-81
2021/11/09 12:59:03;;;;;;;3.08;1.80;;;20.00;51.50;;;;;;6214677;23;20154;-81
2021/11/09 13:01:37;;;;;;;1.75;1.40;;;20.00;51.70;;;;;;6216674;23;20184;-81
2021/11/09 13:04:16;;;;;;;2.80;1.45;;;20.00;51.70;;;;;;6216957;23;20146;-81
2021/11/09 13:06:50;;;;;;;1.98;1.63;;;20.00;51.80;;;;;;6216767;23;20136;-80
2021/11/09 13:09:24;;;;;;;3.17;1.60;;;20.00;51.70;;;;;;6190916;23;20211;-81
2021/11/09 13:11:53;;;;;;;2.72;1.50;;;20.00;51.90;;;;;;6189775;23;20154;-80
2021/11/09 13:14:20;;;;;;;1.80;1.42;;;20.00;52.00;;;;;;6217219;23;20161;-80
2021/11/09 13:16:49;;;;;;;2.72;1.50;;;20.00;51.90;;;;;;6216322;23;20497;-80
2021/11/09 13:19:16;;;;;;;1.98;1.50;;;20.00;51.70;;;;;;6190245;23;20434;-81
2021/11/09 13:21:42;;;;;;;3.28;1.45;;;20.00;51.80;;;;;;6191021;23;20146;-80
2021/11/09 13:24:09;;;;;;;2.92;1.55;;;20.10;51.50;;;;;;6216486;23;20142;-80
2021/11/09 13:26:34;;;;;;;1.90;1.40;;;20.00;51.50;;;;;;6215203;23;20245;-80
2021/11/09 13:29:07;;;;;;;1.90;1.33;;;20.00;51.50;;;;;;6216593;23;20181;-80
2021/11/09 13:31:34;;;;;;;2.22;1.50;;;20.10;51.10;;;;;;6216420;23;20138;-81
2021/11/09 13:34:01;;;;;;;4.53;1.40;;;20.10;51.30;;;;;;6217133;23;20130;-80
2021/11/09 13:36:27;;;;;;;1.98;1.38;;;20.10;51.10;;;;;;6217778;23;20135;-80
2021/11/09 13:38:52;;;;;;;1.98;1.40;;;20.10;51.00;;;;;;6190815;23;20521;-81
2021/11/09 13:41:22;;;;;;;2.42;1.50;;;20.10;51.10;;;;;;6190404;23;20457;-81
2021/11/09 13:43:51;;;;;;;2.40;1.40;;;20.10;51.50;;;;;;6190860;23;20529;-81
2021/11/09 13:46:25;;;;;;;3.10;1.80;;;20.20;51.60;;;;;;6190057;23;20149;-81
2021/11/09 13:48:52;;;;;;;2.78;1.60;;;20.10;51.50;;;;;;6216515;23;20134;-80
2021/11/09 13:51:24;;;;;;;3.88;1.65;;;20.10;51.70;;;;;;6216200;23;20149;-80
2021/11/09 13:53:53;;;;;;;2.67;1.60;;;20.00;51.70;;;;;;6165992;23;20196;-81
2021/11/09 13:56:23;;;;;;;2.03;1.30;;;20.00;51.50;;;;;;6216499;23;20506;-81
2021/11/09 13:59:01;;;;;;;2.03;1.50;;;20.10;51.60;;;;;;6215972;23;20213;-81
2021/11/09 14:01:39;;;;;;;1.73;1.42;;;20.10;51.60;;;;;;6216538;23;20138;-81
2021/11/09 14:04:37;;;;;;;1.77;1.58;;;20.10;51.50;;;;;;6216560;23;20137;-82
2021/11/09 14:15:20;;;;;;;1.75;1.65;;;20.00;51.70;;;;;;6215897;23;20563;-80
2021/11/09 14:17:46;;;;;;;1.88;1.50;;;20.10;51.70;;;;;;6189282;23;20232;-81
2021/11/09 14:20:17;;;;;;;2.58;1.45;;;20.10;51.70;;;;;;6216311;23;20589;-80
2021/11/09 14:22:46;;;;;;;1.98;1.45;;;20.00;51.60;;;;;;6215731;23;20225;-80
2021/11/09 14:25:36;;;;;;;2.10;1.30;;;20.10;51.40;;;;;;6189317;23;20160;-80
2021/11/09 14:28:01;;;;;;;2.28;1.65;;;20.20;51.40;;;;;;6182296;23;20485;-80
2021/11/09 14:30:28;;;;;;;2.95;1.52;;;20.10;51.60;;;;;;6214068;23;20173;-81
2021/11/09 14:33:16;;;;;;;1.73;1.33;;;20.10;51.50;;;;;;6213781;23;20169;-80
2021/11/09 14:35:44;;;;;;;1.88;1.65;;;20.10;51.50;;;;;;6189872;23;20141;-81
2021/11/09 14:38:23;;;;;;;2.70;1.40;;;20.10;51.60;;;;;;6191661;23;20134;-80
2021/11/09 14:40:58;;;;;;;3.65;1.75;;;20.10;51.50;;;;;;6169196;23;20161;-80
2021/11/09 14:43:30;;;;;;;4.30;1.77;;;20.10;51.40;;;;;;6194807;23;20554;-80
2021/11/09 14:46:07;;;;;;;2.00;1.40;;;20.20;51.60;;;;;;6193783;23;20188;-80
2021/11/09 14:48:49;;;;;;;1.75;1.15;;;20.10;51.40;;;;;;6219628;23;20138;-79
2021/11/09 14:51:27;;;;;;;1.92;1.35;;;20.10;51.30;;;;;;6217198;23;20151;-79
2021/11/09 14:56:40;;;;;;;1.92;1.52;;;20.20;51.40;;;;;;6173598;23;20542;-81
2021/11/09 14:59:08;;;;;;;3.13;1.70;;;20.20;52.10;;;;;;6189636;23;20600;-79
2021/11/09 15:01:38;;;;;;;2.28;1.45;;;20.20;51.40;;;;;;6189210;23;20221;-79
2021/11/09 15:04:15;;;;;;;1.27;1.17;;;20.20;51.40;;;;;;6124070;23;20148;-79